Time;durP1;ratioP1;P1;durP2;ratioP2;P2;SDS_P1;SDS_P2;PMS_P1;PMS_P2;Temp;Humidity;BMP_temperature;BMP_pressure;BME280_temperature;BME280_humidity;BME280_pressure;Samples;Min_cycle;Max_cycle;Signal;HPM_P1;HPM_P2
2023/09/15 00:22:49;;;;;;;2.67;1.83;;;13.40;99.90;;;;;;4653689;29;20436;-88
2023/09/15 00:48:10;;;;;;;7.50;2.57;;;13.30;99.90;;;;;;4588900;30;20228;-85
2023/09/15 01:23:43;;;;;;;3.63;2.07;;;12.80;99.90;;;;;;4894760;28;20220;-85
2023/09/15 01:58:40;;;;;;;3.63;1.80;;;12.40;99.90;;;;;;4818467;28;20505;-87
2023/09/15 02:29:34;;;;;;;4.30;2.10;;;12.10;99.90;;;;;;4920038;28;20207;-86
2023/09/15 02:50:00;;;;;;;3.17;1.57;;;12.00;99.90;;;;;;4786207;28;20278;-86
2023/09/15 02:54:20;;;;;;;2.17;1.90;;;12.00;99.90;;;;;;4720920;28;20563;-85
2023/09/15 03:20:13;;;;;;;2.10;1.90;;;11.70;99.90;;;;;;4676528;29;20513;-86
2023/09/15 04:15:44;;;;;;;3.23;2.00;;;11.00;99.90;;;;;;4720738;29;20321;-85
2023/09/15 05:16:19;;;;;;;5.07;2.87;;;11.70;99.90;;;;;;4658198;29;20677;-86
2023/09/15 06:16:54;;;;;;;6.17;2.83;;;12.90;99.90;;;;;;4676741;29;20473;-84
2023/09/15 06:47:24;;;;;;;6.00;3.00;;;13.60;99.90;;;;;;4708221;29;20238;-86
2023/09/15 07:02:51;;;;;;;4.03;3.07;;;14.00;99.90;;;;;;4760094;29;20575;-87
2023/09/15 07:27:52;;;;;;;5.10;2.60;;;14.60;99.90;;;;;;4686552;29;20792;-86
2023/09/15 07:48:15;;;;;;;3.50;2.43;;;15.40;95.30;;;;;;4684134;29;20262;-85
2023/09/15 08:18:20;;;;;;;5.20;2.40;;;15.80;95.50;;;;;;4738894;29;20647;-88
2023/09/15 08:38:37;;;;;;;6.07;2.40;;;16.30;91.60;;;;;;4725214;29;20526;-89
2023/09/15 09:03:58;;;;;;;5.23;1.90;;;16.80;87.00;;;;;;4790485;29;20473;-91
2023/09/15 09:24:56;;;;;;;2.27;1.60;;;17.20;84.90;;;;;;4867446;28;20204;-88
2023/09/15 09:29:22;;;;;;;2.60;1.63;;;17.10;85.60;;;;;;4819464;29;20662;-91
2023/09/15 10:00:22;;;;;;;2.47;1.70;;;17.40;81.10;;;;;;4874751;28;21029;-89
2023/09/15 10:25:17;;;;;;;3.07;1.70;;;17.80;77.60;;;;;;4691608;29;21075;-92
2023/09/15 11:21:37;;;;;;;3.80;1.80;;;18.50;68.90;;;;;;4706042;29;20200;-88
2023/09/15 11:47:07;;;;;;;1.80;1.40;;;18.80;67.40;;;;;;4838692;28;20832;-90
2023/09/15 11:51:25;;;;;;;3.57;1.60;;;18.90;67.80;;;;;;4816775;28;20601;-85
2023/09/15 12:12:25;;;;;;;1.60;1.50;;;19.20;63.40;;;;;;4916341;28;20430;-87
2023/09/15 12:47:44;;;;;;;3.47;1.90;;;19.70;60.50;;;;;;4732726;29;20654;-83
2023/09/15 13:17:41;;;;;;;2.60;1.70;;;19.90;60.00;;;;;;4660679;29;20526;-84
2023/09/15 13:43:04;;;;;;;2.38;1.50;;;20.40;58.60;;;;;;4658734;29;20754;-85
2023/09/15 14:08:55;;;;;;;2.70;1.77;;;20.60;57.80;;;;;;4694641;29;20245;-87
2023/09/15 14:29:13;;;;;;;2.72;1.45;;;21.30;56.40;;;;;;4661736;30;20281;-85
2023/09/15 14:54:43;;;;;;;2.40;1.90;;;19.90;57.40;;;;;;4736333;29;21254;-84
2023/09/15 15:24:33;;;;;;;3.07;1.63;;;19.60;60.20;;;;;;4820870;28;20419;-85
2023/09/15 15:45:20;;;;;;;2.43;1.60;;;19.30;60.60;;;;;;4818712;29;20234;-86
2023/09/15 16:15:15;;;;;;;1.97;1.47;;;18.90;62.10;;;;;;4670481;29;21267;-85
2023/09/15 16:36:06;;;;;;;3.33;1.80;;;18.40;67.80;;;;;;4713769;29;20215;-87
2023/09/15 17:52:12;;;;;;;2.10;1.50;;;16.40;78.30;;;;;;4589742;30;20749;-88
2023/09/15 18:27:47;;;;;;;2.80;1.80;;;15.70;81.50;;;;;;4654160;29;20631;-89
2023/09/15 18:58:04;;;;;;;3.70;2.10;;;15.40;80.90;;;;;;4800910;29;20268;-86
2023/09/15 19:43:07;;;;;;;4.87;2.80;;;14.20;85.70;;;;;;4680461;29;20582;-84
2023/09/15 20:03:46;;;;;;;3.17;2.70;;;13.70;89.40;;;;;;4616218;30;20286;-84
2023/09/15 20:24:17;;;;;;;4.20;2.80;;;13.40;89.50;;;;;;4650337;30;20240;-84
2023/09/15 20:49:34;;;;;;;3.93;2.90;;;12.50;95.60;;;;;;4661156;29;20304;-84
2023/09/15 21:25:15;;;;;;;4.53;2.77;;;11.60;99.90;;;;;;4758464;29;20498;-85
2023/09/15 21:45:08;;;;;;;5.47;3.20;;;11.80;99.90;;;;;;4658574;29;20714;-85
2023/09/15 22:10:45;;;;;;;3.77;3.33;;;11.80;99.90;;;;;;4653969;29;20228;-84
2023/09/15 22:40:43;;;;;;;5.27;3.50;;;11.00;99.90;;;;;;4686292;29;20259;-86
2023/09/15 23:37:08;;;;;;;4.57;3.60;;;10.10;99.90;;;;;;4627671;30;20223;-83
